sensor_id;sensor_type;location;lat;lon;timestamp;temperature;humidity
20066;DHT22;10193;48.884;9.182;2023-04-03T00:00:00;7.00;61.60
20066;DHT22;10193;48.884;9.182;2023-04-03T00:02:28;7.00;60.80
20066;DHT22;10193;48.884;9.182;2023-04-03T00:04:55;7.00;60.80
20066;DHT22;10193;48.884;9.182;2023-04-03T00:07:21;7.00;60.90
20066;DHT22;10193;48.884;9.182;2023-04-03T00:09:48;6.90;60.70
20066;DHT22;10193;48.884;9.182;2023-04-03T00:12:16;6.90;60.80
20066;DHT22;10193;48.884;9.182;2023-04-03T00:14:43;6.90;60.90
20066;DHT22;10193;48.884;9.182;2023-04-03T00:17:10;6.90;60.90
20066;DHT22;10193;48.884;9.182;2023-04-03T00:19:36;6.90;60.90
20066;DHT22;10193;48.884;9.182;2023-04-03T00:22:03;6.90;60.90
20066;DHT22;10193;48.884;9.182;2023-04-03T00:24:30;6.90;60.90
20066;DHT22;10193;48.884;9.182;2023-04-03T00:26:56;6.90;60.70
20066;DHT22;10193;48.884;9.182;2023-04-03T00:29:24;6.80;60.70
20066;DHT22;10193;48.884;9.182;2023-04-03T00:31:51;6.90;60.90
20066;DHT22;10193;48.884;9.182;2023-04-03T00:34:17;6.80;60.90
20066;DHT22;10193;48.884;9.182;2023-04-03T00:36:45;6.80;60.90
20066;DHT22;10193;48.884;9.182;2023-04-03T00:39:11;6.80;60.90
20066;DHT22;10193;48.884;9.182;2023-04-03T00:41:38;6.80;60.90
20066;DHT22;10193;48.884;9.182;2023-04-03T00:44:19;6.80;61.70
20066;DHT22;10193;48.884;9.182;2023-04-03T00:46:47;6.70;60.70
20066;DHT22;10193;48.884;9.182;2023-04-03T00:49:14;6.70;60.70
20066;DHT22;10193;48.884;9.182;2023-04-03T00:51:41;6.70;60.70
20066;DHT22;10193;48.884;9.182;2023-04-03T00:54:08;6.70;60.70
20066;DHT22;10193;48.884;9.182;2023-04-03T00:56:35;6.70;60.80
20066;DHT22;10193;48.884;9.182;2023-04-03T00:59:06;6.70;60.70
20066;DHT22;10193;48.884;9.182;2023-04-03T01:01:35;6.70;60.70
20066;DHT22;10193;48.884;9.182;2023-04-03T01:04:04;6.70;60.70
20066;DHT22;10193;48.884;9.182;2023-04-03T01:06:34;6.70;60.80
20066;DHT22;10193;48.884;9.182;2023-04-03T01:09:03;6.70;60.80
20066;DHT22;10193;48.884;9.182;2023-04-03T01:11:30;6.70;60.80
20066;DHT22;10193;48.884;9.182;2023-04-03T01:13:57;6.70;60.70
20066;DHT22;10193;48.884;9.182;2023-04-03T01:16:24;6.60;60.60
20066;DHT22;10193;48.884;9.182;2023-04-03T01:18:50;6.60;60.70
20066;DHT22;10193;48.884;9.182;2023-04-03T01:21:52;6.70;60.90
20066;DHT22;10193;48.884;9.182;2023-04-03T01:24:27;6.60;60.60
20066;DHT22;10193;48.884;9.182;2023-04-03T01:26:58;6.60;60.70
20066;DHT22;10193;48.884;9.182;2023-04-03T01:29:25;6.60;60.70
20066;DHT22;10193;48.884;9.182;2023-04-03T01:31:54;6.60;60.60
20066;DHT22;10193;48.884;9.182;2023-04-03T01:34:22;6.60;60.70
20066;DHT22;10193;48.884;9.182;2023-04-03T01:36:48;6.60;60.60
20066;DHT22;10193;48.884;9.182;2023-04-03T01:39:16;6.60;60.60
20066;DHT22;10193;48.884;9.182;2023-04-03T01:41:42;6.60;60.70
20066;DHT22;10193;48.884;9.182;2023-04-03T01:44:09;6.50;60.60
20066;DHT22;10193;48.884;9.182;2023-04-03T01:46:36;6.50;60.70
20066;DHT22;10193;48.884;9.182;2023-04-03T01:49:05;6.50;60.60
20066;DHT22;10193;48.884;9.182;2023-04-03T01:51:31;6.50;60.60
20066;DHT22;10193;48.884;9.182;2023-04-03T01:53:58;6.50;60.60
20066;DHT22;10193;48.884;9.182;2023-04-03T01:56:25;6.50;60.60
20066;DHT22;10193;48.884;9.182;2023-04-03T01:58:52;6.50;60.70
20066;DHT22;10193;48.884;9.182;2023-04-03T02:01:18;6.50;60.70
20066;DHT22;10193;48.884;9.182;2023-04-03T02:03:45;6.50;60.70
20066;DHT22;10193;48.884;9.182;2023-04-03T02:06:13;6.50;60.70
20066;DHT22;10193;48.884;9.182;2023-04-03T02:08:40;6.50;60.60
20066;DHT22;10193;48.884;9.182;2023-04-03T02:11:07;6.50;60.60
20066;DHT22;10193;48.884;9.182;2023-04-03T02:13:33;6.50;60.50
20066;DHT22;10193;48.884;9.182;2023-04-03T02:16:06;6.50;60.60
20066;DHT22;10193;48.884;9.182;2023-04-03T02:18:33;6.50;60.50
20066;DHT22;10193;48.884;9.182;2023-04-03T02:20:59;6.50;60.60
20066;DHT22;10193;48.884;9.182;2023-04-03T02:23:27;6.50;60.60
20066;DHT22;10193;48.884;9.182;2023-04-03T02:26:05;6.50;60.50
20066;DHT22;10193;48.884;9.182;2023-04-03T02:28:33;6.50;60.20
20066;DHT22;10193;48.884;9.182;2023-04-03T02:31:00;6.50;60.40
20066;DHT22;10193;48.884;9.182;2023-04-03T02:33:26;6.50;60.30
20066;DHT22;10193;48.884;9.182;2023-04-03T02:35:54;6.50;60.20
20066;DHT22;10193;48.884;9.182;2023-04-03T02:38:21;6.50;60.10
20066;DHT22;10193;48.884;9.182;2023-04-03T02:40:49;6.50;60.00
20066;DHT22;10193;48.884;9.182;2023-04-03T02:43:16;6.50;60.00
20066;DHT22;10193;48.884;9.182;2023-04-03T02:45:43;6.50;60.00
20066;DHT22;10193;48.884;9.182;2023-04-03T02:48:10;6.50;59.70
20066;DHT22;10193;48.884;9.182;2023-04-03T02:50:37;6.50;59.80
20066;DHT22;10193;48.884;9.182;2023-04-03T02:53:03;6.50;59.70
20066;DHT22;10193;48.884;9.182;2023-04-03T02:55:30;6.50;59.60
20066;DHT22;10193;48.884;9.182;2023-04-03T02:57:58;6.50;59.50
20066;DHT22;10193;48.884;9.182;2023-04-03T03:00:25;6.50;59.50
20066;DHT22;10193;48.884;9.182;2023-04-03T03:02:52;6.50;59.50
20066;DHT22;10193;48.884;9.182;2023-04-03T03:05:18;6.50;59.60
20066;DHT22;10193;48.884;9.182;2023-04-03T03:07:45;6.40;59.30
20066;DHT22;10193;48.884;9.182;2023-04-03T03:10:11;6.50;59.50
20066;DHT22;10193;48.884;9.182;2023-04-03T03:12:38;6.40;59.30
20066;DHT22;10193;48.884;9.182;2023-04-03T03:15:07;6.40;59.90
20066;DHT22;10193;48.884;9.182;2023-04-03T03:17:34;6.40;59.30
20066;DHT22;10193;48.884;9.182;2023-04-03T03:20:01;6.40;59.50
20066;DHT22;10193;48.884;9.182;2023-04-03T03:22:28;6.40;59.40
20066;DHT22;10193;48.884;9.182;2023-04-03T03:24:55;6.40;59.50
20066;DHT22;10193;48.884;9.182;2023-04-03T03:27:22;6.40;59.40
20066;DHT22;10193;48.884;9.182;2023-04-03T03:29:49;6.40;59.40
20066;DHT22;10193;48.884;9.182;2023-04-03T03:32:17;6.40;59.50
20066;DHT22;10193;48.884;9.182;2023-04-03T03:34:44;6.40;59.40
20066;DHT22;10193;48.884;9.182;2023-04-03T03:37:11;6.40;59.30
20066;DHT22;10193;48.884;9.182;2023-04-03T03:39:37;6.40;59.30
20066;DHT22;10193;48.884;9.182;2023-04-03T03:42:04;6.40;59.30
20066;DHT22;10193;48.884;9.182;2023-04-03T03:44:31;6.40;59.20
20066;DHT22;10193;48.884;9.182;2023-04-03T03:46:57;6.40;59.30
20066;DHT22;10193;48.884;9.182;2023-04-03T03:49:26;6.40;59.30
20066;DHT22;10193;48.884;9.182;2023-04-03T03:51:53;6.50;59.30
20066;DHT22;10193;48.884;9.182;2023-04-03T03:54:19;6.40;59.30
20066;DHT22;10193;48.884;9.182;2023-04-03T03:56:46;6.40;59.30
20066;DHT22;10193;48.884;9.182;2023-04-03T03:59:13;6.50;59.40
20066;DHT22;10193;48.884;9.182;2023-04-03T04:01:40;6.40;59.20
20066;DHT22;10193;48.884;9.182;2023-04-03T04:04:07;6.50;59.20
20066;DHT22;10193;48.884;9.182;2023-04-03T04:06:35;6.50;59.10
20066;DHT22;10193;48.884;9.182;2023-04-03T04:09:01;6.50;59.10
20066;DHT22;10193;48.884;9.182;2023-04-03T04:11:28;6.50;59.10
20066;DHT22;10193;48.884;9.182;2023-04-03T04:13:55;6.50;59.00
20066;DHT22;10193;48.884;9.182;2023-04-03T04:16:21;6.50;59.10
20066;DHT22;10193;48.884;9.182;2023-04-03T04:18:48;6.60;59.00
20066;DHT22;10193;48.884;9.182;2023-04-03T04:21:15;6.60;59.00
20066;DHT22;10193;48.884;9.182;2023-04-03T04:23:43;6.60;59.00
20066;DHT22;10193;48.884;9.182;2023-04-03T04:26:10;6.60;59.00
20066;DHT22;10193;48.884;9.182;2023-04-03T04:28:36;6.60;59.00
20066;DHT22;10193;48.884;9.182;2023-04-03T04:31:03;6.60;58.70
20066;DHT22;10193;48.884;9.182;2023-04-03T04:33:30;6.60;58.60
20066;DHT22;10193;48.884;9.182;2023-04-03T04:35:56;6.60;58.60
20066;DHT22;10193;48.884;9.182;2023-04-03T04:38:24;6.60;58.50
20066;DHT22;10193;48.884;9.182;2023-04-03T04:40:52;6.60;58.40
20066;DHT22;10193;48.884;9.182;2023-04-03T04:43:19;6.60;58.40
20066;DHT22;10193;48.884;9.182;2023-04-03T04:45:45;6.60;58.40
20066;DHT22;10193;48.884;9.182;2023-04-03T04:48:12;6.60;58.40
20066;DHT22;10193;48.884;9.182;2023-04-03T04:50:39;6.60;58.50
20066;DHT22;10193;48.884;9.182;2023-04-03T04:53:05;6.60;58.50
20066;DHT22;10193;48.884;9.182;2023-04-03T04:55:32;6.60;58.40
20066;DHT22;10193;48.884;9.182;2023-04-03T04:58:00;6.60;58.40
20066;DHT22;10193;48.884;9.182;2023-04-03T05:00:27;6.60;58.40
20066;DHT22;10193;48.884;9.182;2023-04-03T05:02:53;6.60;58.40
20066;DHT22;10193;48.884;9.182;2023-04-03T05:05:20;6.60;58.30
20066;DHT22;10193;48.884;9.182;2023-04-03T05:07:47;6.60;58.30
20066;DHT22;10193;48.884;9.182;2023-04-03T05:10:14;6.60;58.40
20066;DHT22;10193;48.884;9.182;2023-04-03T05:12:41;6.60;58.20
20066;DHT22;10193;48.884;9.182;2023-04-03T05:15:09;6.60;58.30
20066;DHT22;10193;48.884;9.182;2023-04-03T05:17:36;6.50;58.30
20066;DHT22;10193;48.884;9.182;2023-04-03T05:20:04;6.50;58.20
20066;DHT22;10193;48.884;9.182;2023-04-03T05:22:31;6.50;58.40
20066;DHT22;10193;48.884;9.182;2023-04-03T05:24:58;6.50;58.30
20066;DHT22;10193;48.884;9.182;2023-04-03T05:27:24;6.40;58.40
20066;DHT22;10193;48.884;9.182;2023-04-03T05:29:53;6.40;58.40
20066;DHT22;10193;48.884;9.182;2023-04-03T05:32:22;6.40;58.40
20066;DHT22;10193;48.884;9.182;2023-04-03T05:34:49;6.40;58.40
20066;DHT22;10193;48.884;9.182;2023-04-03T05:37:16;6.30;58.40
20066;DHT22;10193;48.884;9.182;2023-04-03T05:39:42;6.30;58.30
20066;DHT22;10193;48.884;9.182;2023-04-03T05:42:09;6.30;58.30
20066;DHT22;10193;48.884;9.182;2023-04-03T05:44:36;6.20;58.30
20066;DHT22;10193;48.884;9.182;2023-04-03T05:47:04;6.20;58.30
20066;DHT22;10193;48.884;9.182;2023-04-03T05:49:32;6.20;58.50
20066;DHT22;10193;48.884;9.182;2023-04-03T05:51:59;6.20;58.50
20066;DHT22;10193;48.884;9.182;2023-04-03T05:54:27;6.20;58.70
20066;DHT22;10193;48.884;9.182;2023-04-03T05:56:54;6.20;58.80
20066;DHT22;10193;48.884;9.182;2023-04-03T05:59:21;6.20;58.80
20066;DHT22;10193;48.884;9.182;2023-04-03T06:01:48;6.20;58.90
20066;DHT22;10193;48.884;9.182;2023-04-03T06:04:15;6.30;59.00
20066;DHT22;10193;48.884;9.182;2023-04-03T06:06:45;6.30;59.10
20066;DHT22;10193;48.884;9.182;2023-04-03T06:09:13;6.30;59.00
20066;DHT22;10193;48.884;9.182;2023-04-03T06:11:39;6.40;59.00
20066;DHT22;10193;48.884;9.182;2023-04-03T06:14:07;6.40;59.00
20066;DHT22;10193;48.884;9.182;2023-04-03T06:16:34;6.40;59.10
20066;DHT22;10193;48.884;9.182;2023-04-03T06:19:00;6.40;59.00
20066;DHT22;10193;48.884;9.182;2023-04-03T06:21:27;6.50;59.10
20066;DHT22;10193;48.884;9.182;2023-04-03T06:23:55;6.50;59.10
20066;DHT22;10193;48.884;9.182;2023-04-03T06:26:22;6.50;59.10
20066;DHT22;10193;48.884;9.182;2023-04-03T06:28:49;6.50;59.10
20066;DHT22;10193;48.884;9.182;2023-04-03T06:31:15;6.60;59.10
20066;DHT22;10193;48.884;9.182;2023-04-03T06:33:42;6.60;59.00
20066;DHT22;10193;48.884;9.182;2023-04-03T06:36:10;6.60;58.90
20066;DHT22;10193;48.884;9.182;2023-04-03T06:38:37;6.60;58.90
20066;DHT22;10193;48.884;9.182;2023-04-03T06:41:06;6.70;59.00
20066;DHT22;10193;48.884;9.182;2023-04-03T06:43:32;6.60;58.90
20066;DHT22;10193;48.884;9.182;2023-04-03T06:45:59;6.70;58.90
20066;DHT22;10193;48.884;9.182;2023-04-03T06:48:25;6.70;58.90
20066;DHT22;10193;48.884;9.182;2023-04-03T06:50:53;6.70;59.00
20066;DHT22;10193;48.884;9.182;2023-04-03T06:53:20;6.70;58.80
20066;DHT22;10193;48.884;9.182;2023-04-03T06:55:47;6.70;58.80
20066;DHT22;10193;48.884;9.182;2023-04-03T06:58:15;6.70;58.90
20066;DHT22;10193;48.884;9.182;2023-04-03T07:00:42;6.70;59.00
20066;DHT22;10193;48.884;9.182;2023-04-03T07:03:09;6.70;59.00
20066;DHT22;10193;48.884;9.182;2023-04-03T07:05:36;6.70;59.00
20066;DHT22;10193;48.884;9.182;2023-04-03T07:08:02;6.70;59.00
20066;DHT22;10193;48.884;9.182;2023-04-03T07:10:29;6.80;59.20
20066;DHT22;10193;48.884;9.182;2023-04-03T07:12:56;6.80;59.20
20066;DHT22;10193;48.884;9.182;2023-04-03T07:15:24;6.80;59.30
20066;DHT22;10193;48.884;9.182;2023-04-03T07:17:51;6.90;59.50
20066;DHT22;10193;48.884;9.182;2023-04-03T07:20:18;6.90;59.40
20066;DHT22;10193;48.884;9.182;2023-04-03T07:22:45;6.90;59.20
20066;DHT22;10193;48.884;9.182;2023-04-03T07:25:11;7.00;59.30
20066;DHT22;10193;48.884;9.182;2023-04-03T07:27:38;7.00;59.50
20066;DHT22;10193;48.884;9.182;2023-04-03T07:30:06;7.10;59.40
20066;DHT22;10193;48.884;9.182;2023-04-03T07:32:34;7.10;59.40
20066;DHT22;10193;48.884;9.182;2023-04-03T07:35:01;7.20;59.30
20066;DHT22;10193;48.884;9.182;2023-04-03T07:37:27;7.30;59.40
20066;DHT22;10193;48.884;9.182;2023-04-03T07:39:54;7.30;59.50
20066;DHT22;10193;48.884;9.182;2023-04-03T07:42:22;7.40;59.40
20066;DHT22;10193;48.884;9.182;2023-04-03T07:44:49;7.40;59.30
20066;DHT22;10193;48.884;9.182;2023-04-03T07:47:16;7.50;59.40
20066;DHT22;10193;48.884;9.182;2023-04-03T07:49:45;7.50;59.30
20066;DHT22;10193;48.884;9.182;2023-04-03T07:52:12;7.60;59.20
20066;DHT22;10193;48.884;9.182;2023-04-03T07:54:40;7.60;59.10
20066;DHT22;10193;48.884;9.182;2023-04-03T07:57:07;7.60;58.60
20066;DHT22;10193;48.884;9.182;2023-04-03T07:59:34;7.70;58.60
20066;DHT22;10193;48.884;9.182;2023-04-03T08:02:00;7.70;58.60
20066;DHT22;10193;48.884;9.182;2023-04-03T08:04:30;7.70;58.70
20066;DHT22;10193;48.884;9.182;2023-04-03T08:06:58;7.70;59.10
20066;DHT22;10193;48.884;9.182;2023-04-03T08:09:24;7.80;59.20
20066;DHT22;10193;48.884;9.182;2023-04-03T08:11:51;7.80;59.50
20066;DHT22;10193;48.884;9.182;2023-04-03T08:14:19;7.90;59.40
20066;DHT22;10193;48.884;9.182;2023-04-03T08:16:47;8.00;59.40
20066;DHT22;10193;48.884;9.182;2023-04-03T08:19:14;8.00;59.00
20066;DHT22;10193;48.884;9.182;2023-04-03T08:21:41;8.10;59.20
20066;DHT22;10193;48.884;9.182;2023-04-03T08:24:09;8.20;59.20
20066;DHT22;10193;48.884;9.182;2023-04-03T08:26:36;8.20;59.10
20066;DHT22;10193;48.884;9.182;2023-04-03T08:29:03;8.20;59.10
20066;DHT22;10193;48.884;9.182;2023-04-03T08:31:30;8.30;58.70
20066;DHT22;10193;48.884;9.182;2023-04-03T08:33:57;8.30;58.40
20066;DHT22;10193;48.884;9.182;2023-04-03T08:36:25;8.30;58.60
20066;DHT22;10193;48.884;9.182;2023-04-03T08:38:53;8.30;58.70
20066;DHT22;10193;48.884;9.182;2023-04-03T08:41:29;8.40;58.70
20066;DHT22;10193;48.884;9.182;2023-04-03T08:44:03;8.40;58.50
20066;DHT22;10193;48.884;9.182;2023-04-03T08:46:42;8.40;58.40
20066;DHT22;10193;48.884;9.182;2023-04-03T08:49:18;8.40;58.00
20066;DHT22;10193;48.884;9.182;2023-04-03T08:51:48;8.40;58.10
20066;DHT22;10193;48.884;9.182;2023-04-03T08:54:24;8.50;58.30
20066;DHT22;10193;48.884;9.182;2023-04-03T08:56:53;8.50;58.00
20066;DHT22;10193;48.884;9.182;2023-04-03T08:59:26;8.50;57.90
20066;DHT22;10193;48.884;9.182;2023-04-03T09:01:54;8.50;58.10
20066;DHT22;10193;48.884;9.182;2023-04-03T09:04:20;8.50;58.30
20066;DHT22;10193;48.884;9.182;2023-04-03T09:06:51;8.60;58.30
20066;DHT22;10193;48.884;9.182;2023-04-03T09:09:30;8.60;58.30
20066;DHT22;10193;48.884;9.182;2023-04-03T09:12:04;8.70;57.90
20066;DHT22;10193;48.884;9.182;2023-04-03T09:14:38;8.70;58.00
20066;DHT22;10193;48.884;9.182;2023-04-03T09:17:13;8.70;58.00
20066;DHT22;10193;48.884;9.182;2023-04-03T09:19:47;8.80;58.10
20066;DHT22;10193;48.884;9.182;2023-04-03T09:22:18;8.90;58.00
20066;DHT22;10193;48.884;9.182;2023-04-03T09:24:49;8.90;57.80
20066;DHT22;10193;48.884;9.182;2023-04-03T09:27:19;8.90;58.00
20066;DHT22;10193;48.884;9.182;2023-04-03T09:29:46;9.00;57.50
20066;DHT22;10193;48.884;9.182;2023-04-03T09:32:21;9.10;57.80
20066;DHT22;10193;48.884;9.182;2023-04-03T09:34:49;9.10;57.80
20066;DHT22;10193;48.884;9.182;2023-04-03T09:37:36;9.20;57.80
20066;DHT22;10193;48.884;9.182;2023-04-03T09:40:04;9.30;57.70
20066;DHT22;10193;48.884;9.182;2023-04-03T09:42:33;9.40;57.70
20066;DHT22;10193;48.884;9.182;2023-04-03T09:45:21;9.40;57.30
20066;DHT22;10193;48.884;9.182;2023-04-03T09:47:49;9.40;56.70
20066;DHT22;10193;48.884;9.182;2023-04-03T09:50:30;9.60;57.30
20066;DHT22;10193;48.884;9.182;2023-04-03T09:52:57;9.60;57.20
20066;DHT22;10193;48.884;9.182;2023-04-03T09:55:25;9.70;56.80
20066;DHT22;10193;48.884;9.182;2023-04-03T09:57:58;9.60;56.60
20066;DHT22;10193;48.884;9.182;2023-04-03T10:00:27;9.70;56.40
20066;DHT22;10193;48.884;9.182;2023-04-03T10:02:56;9.70;56.50
20066;DHT22;10193;48.884;9.182;2023-04-03T10:05:31;9.70;56.60
20066;DHT22;10193;48.884;9.182;2023-04-03T10:08:10;9.70;56.50
20066;DHT22;10193;48.884;9.182;2023-04-03T10:10:37;9.70;56.10
20066;DHT22;10193;48.884;9.182;2023-04-03T10:13:07;9.80;56.60
20066;DHT22;10193;48.884;9.182;2023-04-03T10:15:39;9.90;56.80
20066;DHT22;10193;48.884;9.182;2023-04-03T10:18:21;9.90;56.60
20066;DHT22;10193;48.884;9.182;2023-04-03T10:20:54;10.00;55.10
20066;DHT22;10193;48.884;9.182;2023-04-03T10:23:26;10.00;55.20
20066;DHT22;10193;48.884;9.182;2023-04-03T10:26:06;10.00;54.60
20066;DHT22;10193;48.884;9.182;2023-04-03T10:28:42;10.00;54.00
20066;DHT22;10193;48.884;9.182;2023-04-03T10:31:14;10.00;54.50
20066;DHT22;10193;48.884;9.182;2023-04-03T10:33:55;10.00;54.10
20066;DHT22;10193;48.884;9.182;2023-04-03T10:36:31;10.00;54.00
20066;DHT22;10193;48.884;9.182;2023-04-03T10:39:04;10.00;54.30
20066;DHT22;10193;48.884;9.182;2023-04-03T10:41:45;10.00;54.10
20066;DHT22;10193;48.884;9.182;2023-04-03T10:44:20;10.00;53.90
20066;DHT22;10193;48.884;9.182;2023-04-03T10:46:54;10.00;53.60
20066;DHT22;10193;48.884;9.182;2023-04-03T10:49:36;10.00;53.70
20066;DHT22;10193;48.884;9.182;2023-04-03T10:52:11;10.00;53.00
20066;DHT22;10193;48.884;9.182;2023-04-03T10:54:45;10.10;53.20
20066;DHT22;10193;48.884;9.182;2023-04-03T10:57:13;10.10;53.50
20066;DHT22;10193;48.884;9.182;2023-04-03T10:59:45;10.10;53.70
20066;DHT22;10193;48.884;9.182;2023-04-03T11:02:17;10.10;53.20
20066;DHT22;10193;48.884;9.182;2023-04-03T11:04:52;10.10;53.30
20066;DHT22;10193;48.884;9.182;2023-04-03T11:07:22;10.20;53.30
20066;DHT22;10193;48.884;9.182;2023-04-03T11:09:53;10.20;53.30
20066;DHT22;10193;48.884;9.182;2023-04-03T11:12:25;10.20;53.00
20066;DHT22;10193;48.884;9.182;2023-04-03T11:14:56;10.20;52.80
20066;DHT22;10193;48.884;9.182;2023-04-03T11:17:28;10.20;52.40
20066;DHT22;10193;48.884;9.182;2023-04-03T11:20:01;10.20;52.20
20066;DHT22;10193;48.884;9.182;2023-04-03T11:22:33;10.20;52.20
20066;DHT22;10193;48.884;9.182;2023-04-03T11:25:04;10.20;52.90
20066;DHT22;10193;48.884;9.182;2023-04-03T11:27:41;10.10;51.40
20066;DHT22;10193;48.884;9.182;2023-04-03T11:30:17;10.10;51.40
20066;DHT22;10193;48.884;9.182;2023-04-03T11:35:34;10.00;51.60
20066;DHT22;10193;48.884;9.182;2023-04-03T11:38:03;9.90;52.50
20066;DHT22;10193;48.884;9.182;2023-04-03T11:40:33;9.90;52.50
20066;DHT22;10193;48.884;9.182;2023-04-03T11:43:06;9.90;52.90
20066;DHT22;10193;48.884;9.182;2023-04-03T11:45:40;9.90;52.80
20066;DHT22;10193;48.884;9.182;2023-04-03T11:48:45;9.90;53.10
20066;DHT22;10193;48.884;9.182;2023-04-03T11:54:46;9.90;52.50
20066;DHT22;10193;48.884;9.182;2023-04-03T11:57:50;9.90;52.10
20066;DHT22;10193;48.884;9.182;2023-04-03T12:00:52;9.90;52.20
20066;DHT22;10193;48.884;9.182;2023-04-03T12:06:48;9.90;52.30
20066;DHT22;10193;48.884;9.182;2023-04-03T12:09:27;9.90;51.80
20066;DHT22;10193;48.884;9.182;2023-04-03T12:11:55;9.80;52.40
20066;DHT22;10193;48.884;9.182;2023-04-03T12:14:23;9.90;52.70
20066;DHT22;10193;48.884;9.182;2023-04-03T12:16:53;9.90;53.00
20066;DHT22;10193;48.884;9.182;2023-04-03T12:19:34;9.90;52.80
20066;DHT22;10193;48.884;9.182;2023-04-03T12:22:08;10.00;52.10
20066;DHT22;10193;48.884;9.182;2023-04-03T12:24:35;10.00;51.90
20066;DHT22;10193;48.884;9.182;2023-04-03T12:27:29;10.10;52.40
20066;DHT22;10193;48.884;9.182;2023-04-03T12:33:14;10.20;51.70
20066;DHT22;10193;48.884;9.182;2023-04-03T12:35:51;10.30;50.90
20066;DHT22;10193;48.884;9.182;2023-04-03T12:38:42;10.30;51.60
20066;DHT22;10193;48.884;9.182;2023-04-03T12:41:18;10.30;50.80
20066;DHT22;10193;48.884;9.182;2023-04-03T12:43:59;10.30;51.10
20066;DHT22;10193;48.884;9.182;2023-04-03T12:46:36;10.40;51.20
20066;DHT22;10193;48.884;9.182;2023-04-03T12:49:20;10.40;51.60
20066;DHT22;10193;48.884;9.182;2023-04-03T12:51:49;10.40;50.60
20066;DHT22;10193;48.884;9.182;2023-04-03T12:54:18;10.50;51.10
20066;DHT22;10193;48.884;9.182;2023-04-03T12:56:46;10.60;51.40
20066;DHT22;10193;48.884;9.182;2023-04-03T12:59:15;10.60;51.00
20066;DHT22;10193;48.884;9.182;2023-04-03T13:01:42;10.60;50.80
20066;DHT22;10193;48.884;9.182;2023-04-03T13:04:11;10.60;50.90
20066;DHT22;10193;48.884;9.182;2023-04-03T13:06:40;10.60;50.60
20066;DHT22;10193;48.884;9.182;2023-04-03T13:09:19;10.60;50.60
20066;DHT22;10193;48.884;9.182;2023-04-03T13:11:49;10.60;49.90
20066;DHT22;10193;48.884;9.182;2023-04-03T13:14:18;10.60;50.30
20066;DHT22;10193;48.884;9.182;2023-04-03T13:16:53;10.60;50.20
20066;DHT22;10193;48.884;9.182;2023-04-03T13:19:22;10.60;49.70
20066;DHT22;10193;48.884;9.182;2023-04-03T13:21:52;10.60;50.20
20066;DHT22;10193;48.884;9.182;2023-04-03T13:24:21;10.50;50.40
20066;DHT22;10193;48.884;9.182;2023-04-03T13:26:48;10.60;50.60
20066;DHT22;10193;48.884;9.182;2023-04-03T13:29:22;10.60;50.60
20066;DHT22;10193;48.884;9.182;2023-04-03T13:31:52;10.60;50.10
20066;DHT22;10193;48.884;9.182;2023-04-03T13:34:23;10.70;50.40
20066;DHT22;10193;48.884;9.182;2023-04-03T13:36:56;10.70;50.30
20066;DHT22;10193;48.884;9.182;2023-04-03T13:39:26;10.70;49.90
20066;DHT22;10193;48.884;9.182;2023-04-03T13:41:55;10.70;50.40
20066;DHT22;10193;48.884;9.182;2023-04-03T13:44:31;10.80;50.70
20066;DHT22;10193;48.884;9.182;2023-04-03T13:47:00;10.80;50.20
20066;DHT22;10193;48.884;9.182;2023-04-03T13:49:33;10.90;50.20
20066;DHT22;10193;48.884;9.182;2023-04-03T13:52:02;10.90;49.90
20066;DHT22;10193;48.884;9.182;2023-04-03T13:54:31;11.00;49.90
20066;DHT22;10193;48.884;9.182;2023-04-03T13:57:00;11.00;49.80
20066;DHT22;10193;48.884;9.182;2023-04-03T13:59:28;11.00;49.90
20066;DHT22;10193;48.884;9.182;2023-04-03T14:02:12;11.00;50.00
20066;DHT22;10193;48.884;9.182;2023-04-03T14:04:49;11.00;48.90
20066;DHT22;10193;48.884;9.182;2023-04-03T14:07:18;11.10;49.10
20066;DHT22;10193;48.884;9.182;2023-04-03T14:09:46;11.10;48.90
20066;DHT22;10193;48.884;9.182;2023-04-03T14:12:17;11.10;48.90
20066;DHT22;10193;48.884;9.182;2023-04-03T14:14:45;11.10;48.50
20066;DHT22;10193;48.884;9.182;2023-04-03T14:17:14;11.00;48.60
20066;DHT22;10193;48.884;9.182;2023-04-03T14:19:41;11.00;48.30
20066;DHT22;10193;48.884;9.182;2023-04-03T14:22:16;10.90;48.40
20066;DHT22;10193;48.884;9.182;2023-04-03T14:24:45;10.90;48.40
20066;DHT22;10193;48.884;9.182;2023-04-03T14:27:17;10.90;49.10
20066;DHT22;10193;48.884;9.182;2023-04-03T14:29:44;11.00;49.20
20066;DHT22;10193;48.884;9.182;2023-04-03T14:32:12;11.00;49.10
20066;DHT22;10193;48.884;9.182;2023-04-03T14:34:40;11.10;48.90
20066;DHT22;10193;48.884;9.182;2023-04-03T14:37:12;11.10;48.50
20066;DHT22;10193;48.884;9.182;2023-04-03T14:39:39;11.10;48.50
20066;DHT22;10193;48.884;9.182;2023-04-03T14:42:06;11.10;48.40
20066;DHT22;10193;48.884;9.182;2023-04-03T14:44:38;11.10;48.30
20066;DHT22;10193;48.884;9.182;2023-04-03T14:47:04;11.10;48.40
20066;DHT22;10193;48.884;9.182;2023-04-03T14:49:32;11.10;48.40
20066;DHT22;10193;48.884;9.182;2023-04-03T14:51:58;11.10;48.00
20066;DHT22;10193;48.884;9.182;2023-04-03T14:54:27;11.20;47.80
20066;DHT22;10193;48.884;9.182;2023-04-03T14:56:55;11.20;47.50
20066;DHT22;10193;48.884;9.182;2023-04-03T14:59:22;11.10;47.30
20066;DHT22;10193;48.884;9.182;2023-04-03T15:01:49;11.10;47.20
20066;DHT22;10193;48.884;9.182;2023-04-03T15:04:18;11.00;47.00
20066;DHT22;10193;48.884;9.182;2023-04-03T15:06:45;10.90;46.70
20066;DHT22;10193;48.884;9.182;2023-04-03T15:09:19;10.90;46.90
20066;DHT22;10193;48.884;9.182;2023-04-03T15:11:48;10.80;46.60
20066;DHT22;10193;48.884;9.182;2023-04-03T15:14:14;10.80;46.90
20066;DHT22;10193;48.884;9.182;2023-04-03T15:16:41;10.80;47.20
20066;DHT22;10193;48.884;9.182;2023-04-03T15:19:08;10.80;47.50
20066;DHT22;10193;48.884;9.182;2023-04-03T15:21:35;10.80;47.00
20066;DHT22;10193;48.884;9.182;2023-04-03T15:24:03;10.80;46.90
20066;DHT22;10193;48.884;9.182;2023-04-03T15:26:30;10.70;46.70
20066;DHT22;10193;48.884;9.182;2023-04-03T15:28:59;10.70;47.30
20066;DHT22;10193;48.884;9.182;2023-04-03T15:31:25;10.60;46.20
20066;DHT22;10193;48.884;9.182;2023-04-03T15:33:52;10.60;45.90
20066;DHT22;10193;48.884;9.182;2023-04-03T15:36:19;10.50;46.00
20066;DHT22;10193;48.884;9.182;2023-04-03T15:38:46;10.30;45.80
20066;DHT22;10193;48.884;9.182;2023-04-03T15:41:13;10.30;45.80
20066;DHT22;10193;48.884;9.182;2023-04-03T15:43:39;10.30;45.90
20066;DHT22;10193;48.884;9.182;2023-04-03T15:46:07;10.30;46.30
20066;DHT22;10193;48.884;9.182;2023-04-03T15:48:34;10.20;46.40
20066;DHT22;10193;48.884;9.182;2023-04-03T15:51:02;10.20;46.70
20066;DHT22;10193;48.884;9.182;2023-04-03T15:53:29;10.30;46.80
20066;DHT22;10193;48.884;9.182;2023-04-03T15:55:55;10.30;46.70
20066;DHT22;10193;48.884;9.182;2023-04-03T15:58:22;10.30;46.90
20066;DHT22;10193;48.884;9.182;2023-04-03T16:00:49;10.40;46.70
20066;DHT22;10193;48.884;9.182;2023-04-03T16:03:19;10.40;46.50
20066;DHT22;10193;48.884;9.182;2023-04-03T16:05:46;10.50;46.30
20066;DHT22;10193;48.884;9.182;2023-04-03T16:08:13;10.40;46.00